createdAt,value
2023-03-28T00:02:19.468Z,100802.53
2023-03-28T00:04:49.906Z,100799.91
2023-03-28T00:07:17.773Z,100800.84
2023-03-28T00:09:46.211Z,100806.19
2023-03-28T00:12:13.818Z,100807.13
2023-03-28T00:14:42.725Z,100805.34
2023-03-28T00:17:10.340Z,100803.63
2023-03-28T00:19:40.832Z,100808.88
2023-03-28T00:22:09.120Z,100808.97
2023-03-28T00:24:41.004Z,100811.66
2023-03-28T00:27:08.583Z,100813.50
2023-03-28T00:29:36.414Z,100809.19
2023-03-28T00:32:06.161Z,100815.34
2023-03-28T00:34:34.141Z,100813.56
2023-03-28T00:37:02.634Z,100812.72
2023-03-28T00:39:31.603Z,100814.53
2023-03-28T00:41:59.148Z,100816.31
2023-03-28T00:44:26.729Z,100823.28
2023-03-28T00:46:54.688Z,100818.00
2023-03-28T00:49:22.451Z,100819.81
2023-03-28T00:51:50.319Z,100826.75
2023-03-28T00:54:18.917Z,100826.75
2023-03-28T00:56:47.456Z,100824.19
2023-03-28T00:59:15.536Z,100821.59
2023-03-28T01:01:43.217Z,100816.41
2023-03-28T01:04:10.855Z,100811.19
2023-03-28T01:06:38.479Z,100812.06
2023-03-28T01:09:06.679Z,100812.06
2023-03-28T01:11:34.621Z,100808.59
2023-03-28T01:14:04.383Z,100808.69
2023-03-28T01:16:32.935Z,100811.31
2023-03-28T01:19:02.287Z,100805.22
2023-03-28T01:21:31.464Z,100811.38
2023-03-28T01:24:11.949Z,100814.94
2023-03-28T01:26:40.739Z,100814.94
2023-03-28T01:29:08.357Z,100815.84
2023-03-28T01:31:36.387Z,100816.81
2023-03-28T01:34:05.234Z,100814.19
2023-03-28T01:36:33.907Z,100809.84
2023-03-28T01:39:02.821Z,100814.25
2023-03-28T01:41:30.401Z,100813.38
2023-03-28T01:43:58.452Z,100822.19
2023-03-28T01:46:26.447Z,100815.22
2023-03-28T01:48:54.069Z,100820.50
2023-03-28T01:51:21.628Z,100827.53
2023-03-28T01:53:49.156Z,100819.66
2023-03-28T01:56:18.863Z,100821.41
2023-03-28T01:58:47.192Z,100820.53
2023-03-28T02:01:15.756Z,100820.53
2023-03-28T02:03:43.386Z,100818.81
2023-03-28T02:06:10.960Z,100817.09
2023-03-28T02:08:38.633Z,100814.47
2023-03-28T02:11:06.611Z,100825.88
2023-03-28T02:13:34.229Z,100808.41
2023-03-28T02:16:02.019Z,100811.94
2023-03-28T02:18:30.093Z,100806.72
2023-03-28T02:20:57.918Z,100805.88
2023-03-28T02:23:26.547Z,100804.09
2023-03-28T02:25:54.130Z,100795.41
2023-03-28T02:28:21.730Z,100801.53
2023-03-28T02:30:49.323Z,100797.19
2023-03-28T02:33:17.895Z,100793.72
2023-03-28T02:35:45.910Z,100795.50
2023-03-28T02:38:13.554Z,100786.75
2023-03-28T02:40:41.136Z,100786.75
2023-03-28T02:43:09.223Z,100788.53
2023-03-28T02:45:37.020Z,100785.97
2023-03-28T02:48:05.066Z,100793.03
2023-03-28T02:50:32.691Z,100785.22
2023-03-28T02:53:00.303Z,100788.78
2023-03-28T02:55:28.322Z,100789.69
2023-03-28T02:57:55.966Z,100794.94
2023-03-28T03:00:23.584Z,100793.22
2023-03-28T03:02:51.689Z,100785.44
2023-03-28T03:05:20.816Z,100785.47
2023-03-28T03:07:49.423Z,100781.19
2023-03-28T03:10:17.173Z,100781.22
2023-03-28T03:12:45.185Z,100791.75
2023-03-28T03:15:12.739Z,100784.78
2023-03-28T03:17:40.385Z,100784.97
2023-03-28T03:20:08.786Z,100786.78
2023-03-28T03:22:36.561Z,100781.56
2023-03-28T03:25:07.111Z,100786.81
2023-03-28T03:27:35.182Z,100784.19
2023-03-28T03:30:02.751Z,100783.38
2023-03-28T03:32:30.537Z,100786.88
2023-03-28T03:34:58.730Z,100791.25
2023-03-28T03:37:26.767Z,100786.03
2023-03-28T03:39:54.365Z,100786.91
2023-03-28T03:42:22.025Z,100791.34
2023-03-28T03:44:49.615Z,100784.41
2023-03-28T03:47:19.159Z,100787.84
2023-03-28T03:49:47.168Z,100787.03
2023-03-28T03:52:14.737Z,100794.00
2023-03-28T03:54:42.292Z,100791.53
2023-03-28T03:57:10.027Z,100794.19
2023-03-28T03:59:37.684Z,100794.19
2023-03-28T04:02:05.709Z,100802.09
2023-03-28T04:04:33.420Z,100796.03
2023-03-28T04:07:02.509Z,100796.06
2023-03-28T04:09:31.003Z,100804.03
2023-03-28T04:11:58.592Z,100804.06
2023-03-28T04:14:26.531Z,100810.28
2023-03-28T04:16:54.127Z,100814.66
2023-03-28T04:19:24.415Z,100818.06
2023-03-28T04:21:52.737Z,100818.06
2023-03-28T04:24:21.176Z,100818.16
2023-03-28T04:26:51.272Z,100824.25
2023-03-28T04:29:18.939Z,100828.66
2023-03-28T04:31:50.171Z,100831.31
2023-03-28T04:34:20.203Z,100832.19
2023-03-28T04:36:47.805Z,100833.03
2023-03-28T04:39:15.821Z,100843.50
2023-03-28T04:41:46.407Z,100835.59
2023-03-28T04:44:14.078Z,100834.72
2023-03-28T04:46:41.699Z,100836.50
2023-03-28T04:49:09.488Z,100836.50
2023-03-28T04:51:37.450Z,100839.13
2023-03-28T04:54:05.578Z,100849.53
2023-03-28T04:56:33.347Z,100855.66
2023-03-28T04:59:01.069Z,100852.03
2023-03-28T05:01:28.869Z,100859.00
2023-03-28T05:03:56.956Z,100857.25
2023-03-28T05:06:27.614Z,100858.94
2023-03-28T05:08:55.225Z,100858.94
2023-03-28T05:11:22.834Z,100853.69
2023-03-28T05:13:50.492Z,100865.91
2023-03-28T05:16:18.802Z,100864.16
2023-03-28T05:18:47.260Z,100859.78
2023-03-28T05:21:14.858Z,100864.16
2023-03-28T05:23:42.527Z,100872.00
2023-03-28T05:26:10.610Z,100866.78
2023-03-28T05:28:38.564Z,100874.56
2023-03-28T05:31:07.675Z,100874.56
2023-03-28T05:33:35.336Z,100880.72
2023-03-28T05:36:03.255Z,100879.81
2023-03-28T05:38:33.814Z,100886.78
2023-03-28T05:41:02.288Z,100878.03
2023-03-28T05:43:30.177Z,100893.78
2023-03-28T05:45:57.827Z,100886.75
2023-03-28T05:48:25.556Z,100892.00
2023-03-28T05:50:53.457Z,100893.78
2023-03-28T05:53:21.929Z,100890.25
2023-03-28T05:55:49.595Z,100888.44
2023-03-28T05:58:17.660Z,100885.72
2023-03-28T06:00:46.765Z,100890.91
2023-03-28T06:03:17.853Z,100881.13
2023-03-28T06:05:46.190Z,100874.00
2023-03-28T06:08:13.818Z,100887.84
2023-03-28T06:10:42.341Z,100887.69
2023-03-28T06:13:10.026Z,100885.78
2023-03-28T06:15:38.098Z,100887.31
2023-03-28T06:18:06.195Z,100892.31
2023-03-28T06:20:34.019Z,100899.97
2023-03-28T06:23:03.749Z,100896.19
2023-03-28T06:25:31.531Z,100899.41
2023-03-28T06:27:59.666Z,100893.97
2023-03-28T06:30:27.703Z,100893.66
2023-03-28T06:32:55.723Z,100901.38
2023-03-28T06:35:23.621Z,100907.28
2023-03-28T06:37:51.295Z,100906.16
2023-03-28T06:40:19.221Z,100906.78
2023-03-28T06:42:47.570Z,100907.34
2023-03-28T06:45:16.115Z,100907.09
2023-03-28T06:47:43.990Z,100911.19
2023-03-28T06:50:11.724Z,100909.22
2023-03-28T06:52:39.795Z,100905.47
2023-03-28T06:55:08.328Z,100898.25
2023-03-28T06:57:36.070Z,100907.66
2023-03-28T07:00:04.090Z,100908.31
2023-03-28T07:02:31.966Z,100901.94
2023-03-28T07:04:59.908Z,100901.63
2023-03-28T07:07:28.686Z,100910.03
2023-03-28T07:09:56.737Z,100915.97
2023-03-28T07:12:24.388Z,100914.00
2023-03-28T07:14:52.118Z,100922.53
2023-03-28T07:17:20.242Z,100914.38
2023-03-28T07:19:51.602Z,100924.66
2023-03-28T07:22:19.185Z,100920.81
2023-03-28T07:24:46.972Z,100917.03
2023-03-28T07:27:16.259Z,100922.00
2023-03-28T07:29:45.741Z,100917.97
2023-03-28T07:32:14.099Z,100920.03
2023-03-28T07:34:42.035Z,100927.44
2023-03-28T07:37:09.703Z,100922.59
2023-03-28T07:39:40.155Z,100927.44
2023-03-28T07:42:08.566Z,100933.97
2023-03-28T07:44:36.821Z,100930.16
2023-03-28T07:47:04.658Z,100929.66
2023-03-28T07:49:32.358Z,100938.78
2023-03-28T07:51:59.993Z,100927.84
2023-03-28T07:54:28.620Z,100925.75
2023-03-28T07:56:57.112Z,100941.19
2023-03-28T07:59:24.773Z,100927.69
2023-03-28T08:01:52.674Z,100922.88
2023-03-28T08:04:20.862Z,100926.88
2023-03-28T08:06:49.089Z,100930.88
2023-03-28T08:09:17.366Z,100928.66
2023-03-28T08:11:45.239Z,100926.69
2023-03-28T08:14:13.254Z,100923.00
2023-03-28T08:16:41.269Z,100921.88
2023-03-28T08:19:11.772Z,100927.81
2023-03-28T08:21:39.859Z,100928.47
2023-03-28T08:24:08.055Z,100922.84
2023-03-28T08:26:36.877Z,100917.94
2023-03-28T08:29:05.179Z,100919.09
2023-03-28T08:31:33.077Z,100916.88
2023-03-28T08:34:01.362Z,100915.78
2023-03-28T08:36:29.441Z,100919.81
2023-03-28T08:39:00.914Z,100914.06
2023-03-28T08:41:28.809Z,100919.78
2023-03-28T08:43:56.503Z,100922.69
2023-03-28T08:46:25.120Z,100928.19
2023-03-28T08:48:52.898Z,100923.97
2023-03-28T08:51:20.855Z,100923.53
2023-03-28T08:53:48.789Z,100926.81
2023-03-28T08:56:16.656Z,100914.84
2023-03-28T08:58:47.819Z,100917.25
2023-03-28T09:01:16.781Z,100909.28
2023-03-28T09:03:44.799Z,100906.38
2023-03-28T09:06:12.841Z,100907.88
2023-03-28T09:08:40.923Z,100909.53
2023-03-28T09:11:09.448Z,100907.75
2023-03-28T09:13:37.307Z,100903.91
2023-03-28T09:16:07.413Z,100914.22
2023-03-28T09:18:37.139Z,100916.13
2023-03-28T09:21:05.367Z,100912.44
2023-03-28T09:23:33.834Z,100910.66
2023-03-28T09:26:02.007Z,100910.69
2023-03-28T09:28:29.801Z,100904.69
2023-03-28T09:30:57.880Z,100903.66
2023-03-28T09:33:25.710Z,100900.88
2023-03-28T09:35:53.810Z,100902.16
2023-03-28T09:38:21.762Z,100898.47
2023-03-28T09:40:49.874Z,100894.53
2023-03-28T09:43:17.993Z,100896.09
2023-03-28T09:45:45.776Z,100894.00
2023-03-28T09:48:14.388Z,100896.03
2023-03-28T09:50:42.782Z,100906.19
2023-03-28T09:53:10.687Z,100903.59
2023-03-28T09:55:38.659Z,100894.78
2023-03-28T09:58:06.775Z,100897.53
2023-03-28T10:00:35.150Z,100905.25
2023-03-28T10:03:03.563Z,100901.06
2023-03-28T10:05:31.953Z,100901.41
2023-03-28T10:07:59.810Z,100888.47
2023-03-28T10:10:28.941Z,100881.56
2023-03-28T10:12:57.213Z,100895.34
2023-03-28T10:15:25.138Z,100892.31
2023-03-28T10:17:53.223Z,100894.53
2023-03-28T10:20:21.760Z,100889.97
2023-03-28T10:22:50.289Z,100879.78
2023-03-28T10:25:18.539Z,100883.50
2023-03-28T10:27:46.544Z,100884.09
2023-03-28T10:30:14.624Z,100880.34
2023-03-28T10:32:42.493Z,100879.47
2023-03-28T10:35:11.071Z,100876.88
2023-03-28T10:37:39.705Z,100872.28
2023-03-28T10:40:07.997Z,100874.94
2023-03-28T10:42:35.878Z,100863.78
2023-03-28T10:45:04.365Z,100863.22
2023-03-28T10:47:33.184Z,100863.59
2023-03-28T10:50:01.142Z,100859.16
2023-03-28T10:52:29.073Z,100862.47
2023-03-28T10:54:57.052Z,100846.03
2023-03-28T10:57:25.019Z,100837.66
2023-03-28T10:59:53.373Z,100843.31
2023-03-28T11:02:21.834Z,100842.69
2023-03-28T11:04:49.635Z,100840.28
2023-03-28T11:07:18.031Z,100840.34
2023-03-28T11:09:46.133Z,100841.28
2023-03-28T11:12:22.914Z,100833.84
2023-03-28T11:14:56.768Z,100827.91
2023-03-28T11:17:24.661Z,100826.38
2023-03-28T11:19:52.717Z,100838.00
2023-03-28T11:22:21.141Z,100832.97
2023-03-28T11:24:48.961Z,100830.09
2023-03-28T11:27:17.478Z,100827.63
2023-03-28T11:29:46.540Z,100819.66
2023-03-28T11:32:14.353Z,100811.06
2023-03-28T11:34:43.266Z,100795.72
2023-03-28T11:37:11.493Z,100791.81
2023-03-28T11:39:41.258Z,100793.91
2023-03-28T11:42:09.073Z,100794.78
2023-03-28T11:44:37.057Z,100776.66
2023-03-28T11:47:05.077Z,100772.00
2023-03-28T11:49:33.068Z,100775.50
2023-03-28T11:52:01.539Z,100766.06
2023-03-28T11:54:29.409Z,100767.75
2023-03-28T11:56:57.480Z,100765.34
2023-03-28T11:59:25.729Z,100761.00
2023-03-28T12:01:53.678Z,100762.41
2023-03-28T12:04:22.275Z,100751.78
2023-03-28T12:07:02.269Z,100738.44
2023-03-28T12:09:32.170Z,100727.06
2023-03-28T12:12:00.175Z,100731.72
2023-03-28T12:14:28.338Z,100726.38
2023-03-28T12:16:57.012Z,100717.75
2023-03-28T12:19:25.273Z,100705.13
2023-03-28T12:21:54.573Z,100696.88
2023-03-28T12:24:23.420Z,100686.22
2023-03-28T12:26:53.076Z,100684.78
2023-03-28T12:29:23.033Z,100683.66
2023-03-28T12:31:51.288Z,100683.19
2023-03-28T12:34:19.401Z,100684.31
2023-03-28T12:36:49.397Z,100674.13
2023-03-28T12:39:18.340Z,100679.59
2023-03-28T12:41:46.260Z,100683.81
2023-03-28T12:44:14.220Z,100675.66
2023-03-28T12:46:46.671Z,100673.72
2023-03-28T12:49:14.610Z,100672.88
2023-03-28T12:51:42.827Z,100669.16
2023-03-28T12:54:11.188Z,100672.13
2023-03-28T12:56:39.169Z,100677.81
2023-03-28T12:59:07.395Z,100702.75
2023-03-28T13:01:35.330Z,100689.22
2023-03-28T13:04:03.804Z,100685.66
2023-03-28T13:06:33.056Z,100681.69
2023-03-28T13:09:00.961Z,100679.03
2023-03-28T13:11:29.352Z,100673.03
2023-03-28T13:13:59.056Z,100679.75
2023-03-28T13:16:28.070Z,100667.03
2023-03-28T13:18:56.037Z,100666.09
2023-03-28T13:21:23.877Z,100660.13
2023-03-28T13:23:52.590Z,100656.91
2023-03-28T13:26:22.784Z,100651.34
2023-03-28T13:28:52.548Z,100645.16
2023-03-28T13:31:20.744Z,100635.63
2023-03-28T13:33:48.627Z,100634.59
2023-03-28T13:36:16.607Z,100634.06
2023-03-28T13:38:44.740Z,100623.91
2023-03-28T13:41:13.508Z,100617.66
2023-03-28T13:43:43.571Z,100612.06
2023-03-28T13:46:11.936Z,100603.06
2023-03-28T13:48:40.056Z,100601.38
2023-03-28T13:51:08.345Z,100591.72
2023-03-28T13:53:46.963Z,100588.19
2023-03-28T13:56:16.683Z,100584.41
2023-03-28T13:58:44.593Z,100585.53
2023-03-28T14:01:12.679Z,100584.78
2023-03-28T14:03:42.753Z,100570.00
2023-03-28T14:06:11.453Z,100562.94
2023-03-28T14:08:39.310Z,100554.28
2023-03-28T14:11:07.264Z,100566.94
2023-03-28T14:13:35.136Z,100563.22
2023-03-28T14:16:03.719Z,100558.88
2023-03-28T14:18:32.182Z,100560.06
2023-03-28T14:21:00.664Z,100556.16
2023-03-28T14:23:29.161Z,100549.16
2023-03-28T14:25:57.167Z,100553.88
2023-03-28T14:28:25.290Z,100550.66
2023-03-28T14:30:53.280Z,100540.13
2023-03-28T14:33:21.423Z,100546.91
2023-03-28T14:35:49.612Z,100534.72
2023-03-28T14:38:17.700Z,100537.56
2023-03-28T14:40:45.972Z,100537.91
2023-03-28T14:43:14.284Z,100529.28
2023-03-28T14:45:42.754Z,100515.38
2023-03-28T14:48:11.446Z,100518.19
2023-03-28T14:50:39.362Z,100511.34
2023-03-28T14:53:07.613Z,100508.22
2023-03-28T14:55:37.310Z,100504.97
2023-03-28T14:58:05.071Z,100502.06
2023-03-28T15:00:33.623Z,100500.72
2023-03-28T15:03:01.896Z,100497.56
2023-03-28T15:05:30.610Z,100488.19
2023-03-28T15:07:58.610Z,100481.16
2023-03-28T15:10:26.608Z,100487.00
2023-03-28T15:12:54.871Z,100472.28
2023-03-28T15:15:23.007Z,100458.53
2023-03-28T15:17:51.675Z,100454.34
2023-03-28T15:20:19.673Z,100447.19
2023-03-28T15:22:47.586Z,100451.66
2023-03-28T15:25:15.810Z,100445.16
2023-03-28T15:27:44.123Z,100438.41
2023-03-28T15:30:12.608Z,100444.75
2023-03-28T15:32:40.971Z,100442.09
2023-03-28T15:35:11.442Z,100434.06
2023-03-28T15:37:40.543Z,100414.88
2023-03-28T15:40:09.687Z,100408.06
2023-03-28T15:42:37.673Z,100396.09
2023-03-28T15:45:05.579Z,100394.19
2023-03-28T15:47:33.822Z,100390.38
2023-03-28T15:50:03.726Z,100385.88
2023-03-28T15:52:31.699Z,100379.69
2023-03-28T15:55:00.120Z,100364.38
2023-03-28T15:57:28.475Z,100383.09
2023-03-28T15:59:56.519Z,100382.03
2023-03-28T16:02:24.531Z,100376.84
2023-03-28T16:04:52.364Z,100378.94
2023-03-28T16:07:20.623Z,100373.94
2023-03-28T16:09:51.551Z,100379.22
2023-03-28T16:12:19.476Z,100385.94
2023-03-28T16:14:47.475Z,100389.63
2023-03-28T16:17:15.517Z,100396.63
2023-03-28T16:19:46.056Z,100393.81
2023-03-28T16:22:14.221Z,100395.56
2023-03-28T16:24:42.248Z,100394.03
2023-03-28T16:27:10.161Z,100393.88
2023-03-28T16:29:38.132Z,100382.91
2023-03-28T16:32:07.387Z,100382.38
2023-03-28T16:34:35.366Z,100374.59
2023-03-28T16:37:03.210Z,100374.69
2023-03-28T16:39:31.236Z,100371.84
2023-03-28T16:41:59.081Z,100367.97
2023-03-28T16:44:27.463Z,100371.91
2023-03-28T16:46:55.509Z,100370.50
2023-03-28T16:49:23.319Z,100369.88
2023-03-28T16:51:51.933Z,100369.31
2023-03-28T16:54:20.272Z,100364.19
2023-03-28T16:56:49.108Z,100368.13
2023-03-28T16:59:17.061Z,100360.47
2023-03-28T17:01:46.609Z,100362.56
2023-03-28T17:04:14.513Z,100363.00
2023-03-28T17:06:42.370Z,100363.41
2023-03-28T17:09:10.795Z,100359.34
2023-03-28T17:11:40.576Z,100348.16
2023-03-28T17:14:08.636Z,100349.22
2023-03-28T17:16:40.669Z,100353.78
2023-03-28T17:19:08.669Z,100362.88
2023-03-28T17:21:37.723Z,100352.47
2023-03-28T17:24:11.559Z,100352.69
2023-03-28T17:26:39.469Z,100346.72
2023-03-28T17:29:07.892Z,100347.78
2023-03-28T17:31:36.105Z,100339.91
2023-03-28T17:34:04.923Z,100346.25
2023-03-28T17:36:32.921Z,100342.94
2023-03-28T17:39:02.193Z,100341.34
2023-03-28T17:41:30.025Z,100341.53
2023-03-28T17:43:58.223Z,100336.44
2023-03-28T17:46:27.403Z,100335.66
2023-03-28T17:48:55.395Z,100336.75
2023-03-28T17:51:23.448Z,100338.75
2023-03-28T17:53:51.648Z,100335.31
2023-03-28T17:56:19.800Z,100331.91
2023-03-28T17:58:48.210Z,100331.25
2023-03-28T18:01:16.379Z,100331.34
2023-03-28T18:03:44.575Z,100335.06
2023-03-28T18:06:13.072Z,100331.59
2023-03-28T18:08:41.130Z,100339.69
2023-03-28T18:11:09.532Z,100325.66
2023-03-28T18:13:37.468Z,100318.72
2023-03-28T18:16:06.451Z,100324.16
2023-03-28T18:18:34.423Z,100323.41
2023-03-28T18:21:02.335Z,100320.84
2023-03-28T18:23:30.797Z,100313.72
2023-03-28T18:25:58.827Z,100316.50
2023-03-28T18:28:27.029Z,100317.53
2023-03-28T18:30:55.128Z,100302.56
2023-03-28T18:33:23.140Z,100307.09
2023-03-28T18:35:51.862Z,100301.91
2023-03-28T18:38:19.862Z,100305.59
2023-03-28T18:40:47.881Z,100293.31
2023-03-28T18:43:16.042Z,100301.34
2023-03-28T18:45:44.138Z,100303.16
2023-03-28T18:48:13.377Z,100299.75
2023-03-28T18:50:42.416Z,100295.38
2023-03-28T18:53:10.538Z,100299.00
2023-03-28T18:55:38.418Z,100289.25
2023-03-28T18:58:08.398Z,100290.16
2023-03-28T19:00:36.784Z,100287.53
2023-03-28T19:03:04.820Z,100280.44
2023-03-28T19:05:34.409Z,100283.09
2023-03-28T19:08:02.321Z,100283.09
2023-03-28T19:10:30.217Z,100276.09
2023-03-28T19:12:58.395Z,100277.03
2023-03-28T19:15:26.524Z,100271.63
2023-03-28T19:17:54.472Z,100270.78
2023-03-28T19:20:22.380Z,100271.63
2023-03-28T19:22:50.362Z,100266.97
2023-03-28T19:25:18.484Z,100266.88
2023-03-28T19:27:49.786Z,100272.94
2023-03-28T19:30:18.023Z,100263.28
2023-03-28T19:32:46.116Z,100266.78
2023-03-28T19:35:14.013Z,100265.94
2023-03-28T19:37:42.335Z,100258.84
2023-03-28T19:40:10.584Z,100257.03
2023-03-28T19:42:38.572Z,100264.97
2023-03-28T19:45:06.451Z,100267.44
2023-03-28T19:47:34.326Z,100268.28
2023-03-28T19:50:04.502Z,100268.75
2023-03-28T19:52:32.377Z,100269.28
2023-03-28T19:55:00.538Z,100282.25
2023-03-28T19:57:28.765Z,100281.06
2023-03-28T19:59:56.921Z,100280.13
2023-03-28T20:02:24.775Z,100297.72
2023-03-28T20:04:52.994Z,100296.88
2023-03-28T20:07:21.655Z,100295.53
2023-03-28T20:09:50.182Z,100282.03
2023-03-28T20:12:18.102Z,100274.63
2023-03-28T20:14:46.400Z,100283.09
2023-03-28T20:17:14.193Z,100318.72
2023-03-28T20:19:42.700Z,100299.19
2023-03-28T20:22:10.565Z,100299.00
2023-03-28T20:24:38.858Z,100302.91
2023-03-28T20:27:07.565Z,100306.53
2023-03-28T20:29:35.434Z,100307.16
2023-03-28T20:32:05.149Z,100296.97
2023-03-28T20:34:33.930Z,100291.81
2023-03-28T20:37:03.683Z,100292.78
2023-03-28T20:39:35.342Z,100290.22
2023-03-28T20:42:05.920Z,100284.16
2023-03-28T20:44:38.313Z,100278.94
2023-03-28T20:47:06.417Z,100288.69
2023-03-28T20:49:34.909Z,100287.06
2023-03-28T20:52:02.880Z,100294.16
2023-03-28T20:54:30.695Z,100282.81
2023-03-28T20:56:59.352Z,100287.25
2023-03-28T20:59:27.531Z,100275.06
2023-03-28T21:01:56.572Z,100284.19
2023-03-28T21:04:24.497Z,100280.88
2023-03-28T21:06:52.481Z,100277.66
2023-03-28T21:09:20.804Z,100271.66
2023-03-28T21:11:49.900Z,100278.84
2023-03-28T21:14:18.465Z,100278.94
2023-03-28T21:16:47.610Z,100283.34
2023-03-28T21:19:15.703Z,100282.00
2023-03-28T21:21:43.863Z,100274.78
2023-03-28T21:24:11.797Z,100277.13
2023-03-28T21:26:40.105Z,100270.66
2023-03-28T21:29:08.169Z,100271.97
2023-03-28T21:31:37.341Z,100274.19
2023-03-28T21:34:05.557Z,100268.41
2023-03-28T21:36:33.623Z,100255.53
2023-03-28T21:39:01.756Z,100253.22
2023-03-28T21:41:29.786Z,100253.56
2023-03-28T21:43:57.563Z,100257.47
2023-03-28T21:46:25.495Z,100261.94
2023-03-28T21:48:53.493Z,100249.94
2023-03-28T21:51:21.700Z,100243.03
2023-03-28T21:53:49.411Z,100244.91
2023-03-28T21:56:17.132Z,100245.84
2023-03-28T21:58:45.667Z,100239.63
2023-03-28T22:01:13.756Z,100231.72
2023-03-28T22:03:42.109Z,100225.50
2023-03-28T22:06:09.878Z,100235.13
2023-03-28T22:08:37.633Z,100226.25
2023-03-28T22:11:05.864Z,100226.09
2023-03-28T22:13:33.679Z,100218.13
2023-03-28T22:16:01.731Z,100215.38
2023-03-28T22:18:30.902Z,100219.63
2023-03-28T22:21:02.869Z,100218.69
2023-03-28T22:23:31.256Z,100211.66
2023-03-28T22:25:59.011Z,100209.00
2023-03-28T22:28:27.318Z,100207.31
2023-03-28T22:30:55.090Z,100212.59
2023-03-28T22:33:23.709Z,100208.25
2023-03-28T22:35:51.945Z,100199.47
2023-03-28T22:38:19.755Z,100197.69
2023-03-28T22:40:47.778Z,100202.03
2023-03-28T22:43:16.402Z,100194.00
2023-03-28T22:45:44.208Z,100192.28
2023-03-28T22:48:14.636Z,100183.53
2023-03-28T22:50:44.216Z,100185.25
2023-03-28T22:53:12.890Z,100183.34
2023-03-28T22:55:40.605Z,100171.94
2023-03-28T22:58:08.214Z,100174.56
2023-03-28T23:00:36.399Z,100169.41
2023-03-28T23:03:04.245Z,100165.81
2023-03-28T23:05:32.854Z,100169.22
2023-03-28T23:08:00.595Z,100162.06
2023-03-28T23:10:28.364Z,100168.97
2023-03-28T23:12:56.548Z,100156.63
2023-03-28T23:15:24.174Z,100151.25
2023-03-28T23:17:52.730Z,100161.72
2023-03-28T23:20:20.444Z,100151.16
2023-03-28T23:22:48.467Z,100151.94
2023-03-28T23:25:16.191Z,100143.91
2023-03-28T23:27:44.355Z,100142.91
2023-03-28T23:30:12.322Z,100139.38
2023-03-28T23:32:40.111Z,100132.34
2023-03-28T23:35:07.797Z,100122.53
2023-03-28T23:37:38.397Z,100109.31
2023-03-28T23:40:10.676Z,100124.22
2023-03-28T23:42:38.417Z,100113.66
2023-03-28T23:45:06.118Z,100097.81
2023-03-28T23:47:33.844Z,100087.25
2023-03-28T23:50:01.562Z,100084.72
2023-03-28T23:52:29.167Z,100075.94
2023-03-28T23:54:57.222Z,100072.47
2023-03-28T23:57:25.423Z,100076.88
2023-03-28T23:59:53.090Z,100073.38
